createdAt,value
2022-09-26T00:01:21.292Z,100540.28
2022-09-26T00:04:02.187Z,100529.91
2022-09-26T00:06:29.361Z,100529.06
2022-09-26T00:08:56.374Z,100523.72
2022-09-26T00:11:25.891Z,100515.22
2022-09-26T00:13:58.613Z,100506.28
2022-09-26T00:16:25.865Z,100501.69
2022-09-26T00:18:54.087Z,100496.13
2022-09-26T00:21:21.411Z,100494.84
2022-09-26T00:23:48.457Z,100480.50
2022-09-26T00:26:16.547Z,100485.22
2022-09-26T00:28:43.294Z,100482.97
2022-09-26T00:31:15.835Z,100479.97
2022-09-26T00:33:42.898Z,100471.59
2022-09-26T00:36:09.598Z,100465.06
2022-09-26T00:38:36.428Z,100464.81
2022-09-26T00:41:03.814Z,100460.31
2022-09-26T00:43:33.744Z,100458.19
2022-09-26T00:46:05.539Z,100452.22
2022-09-26T00:48:32.633Z,100456.69
2022-09-26T00:50:59.944Z,100446.03
2022-09-26T00:53:32.586Z,100444.34
2022-09-26T00:56:03.779Z,100445.16
2022-09-26T00:58:39.889Z,100436.44
2022-09-26T01:01:07.144Z,100436.19
2022-09-26T01:03:35.031Z,100434.72
2022-09-26T01:06:01.626Z,100426.63
2022-09-26T01:08:55.934Z,100428.03
2022-09-26T01:11:22.860Z,100419.09
2022-09-26T01:13:51.602Z,100415.06
2022-09-26T01:16:18.542Z,100416.59
2022-09-26T01:18:45.397Z,100416.94
2022-09-26T01:21:32.032Z,100402.03
2022-09-26T01:24:11.596Z,100400.13
2022-09-26T01:27:04.673Z,100398.88
2022-09-26T01:29:59.081Z,100391.53
2022-09-26T01:32:50.239Z,100382.81
2022-09-26T01:35:54.468Z,100384.28
2022-09-26T01:38:27.126Z,100382.88
2022-09-26T01:41:08.870Z,100383.53
2022-09-26T01:43:54.535Z,100381.00
2022-09-26T01:46:37.011Z,100385.34
2022-09-26T01:49:19.473Z,100388.56
2022-09-26T01:52:19.631Z,100378.53
2022-09-26T01:55:06.033Z,100378.69
2022-09-26T01:57:39.754Z,100374.41
2022-09-26T02:00:08.059Z,100372.19
2022-09-26T02:02:39.039Z,100360.09
2022-09-26T02:05:47.010Z,100358.88
2022-09-26T02:08:18.411Z,100351.41
2022-09-26T02:10:51.562Z,100342.16
2022-09-26T02:13:22.160Z,100341.00
2022-09-26T02:15:53.026Z,100326.72
2022-09-26T02:18:24.258Z,100327.91
2022-09-26T02:21:03.586Z,100322.09
2022-09-26T02:23:30.194Z,100310.69
2022-09-26T02:25:57.837Z,100313.75
2022-09-26T02:28:24.440Z,100310.13
2022-09-26T02:30:52.591Z,100296.09
2022-09-26T02:33:19.340Z,100290.66
2022-09-26T02:35:54.954Z,100291.00
2022-09-26T02:38:27.311Z,100278.88
2022-09-26T02:41:07.446Z,100276.44
2022-09-26T02:44:01.995Z,100275.50
2022-09-26T02:46:39.785Z,100265.47
2022-09-26T02:49:45.458Z,100262.25
2022-09-26T02:52:24.308Z,100260.09
2022-09-26T02:55:18.710Z,100251.59
2022-09-26T02:57:58.781Z,100244.06
2022-09-26T03:00:29.393Z,100237.91
2022-09-26T03:03:06.000Z,100234.03
2022-09-26T03:05:33.091Z,100228.00
2022-09-26T03:08:22.259Z,100227.38
2022-09-26T03:10:50.258Z,100221.53
2022-09-26T03:13:17.366Z,100212.59
2022-09-26T03:15:46.850Z,100204.28
2022-09-26T03:18:21.750Z,100205.13
2022-09-26T03:20:49.053Z,100200.31
2022-09-26T03:23:16.047Z,100203.91
2022-09-26T03:25:42.724Z,100193.16
2022-09-26T03:28:10.604Z,100193.28
2022-09-26T03:30:37.904Z,100185.28
2022-09-26T03:33:04.588Z,100191.72
2022-09-26T03:35:31.176Z,100179.25
2022-09-26T03:37:57.753Z,100177.31
2022-09-26T03:40:24.349Z,100173.19
2022-09-26T03:42:50.966Z,100175.84
2022-09-26T03:45:17.864Z,100170.78
2022-09-26T03:47:57.296Z,100164.59
2022-09-26T03:50:25.404Z,100162.66
2022-09-26T03:52:52.547Z,100162.28
2022-09-26T03:55:19.139Z,100166.78
2022-09-26T03:57:45.858Z,100161.06
2022-09-26T04:00:12.721Z,100151.78
2022-09-26T04:02:39.454Z,100149.69
2022-09-26T04:05:06.284Z,100147.03
2022-09-26T04:07:32.868Z,100139.88
2022-09-26T04:09:59.507Z,100135.03
2022-09-26T04:12:26.112Z,100133.22
2022-09-26T04:14:52.974Z,100134.69
2022-09-26T04:17:20.015Z,100120.63
2022-09-26T04:19:46.781Z,100113.00
2022-09-26T04:22:13.368Z,100122.94
2022-09-26T04:24:39.931Z,100107.09
2022-09-26T04:27:06.540Z,100099.72
2022-09-26T04:29:33.155Z,100107.13
2022-09-26T04:31:59.890Z,100098.66
2022-09-26T04:34:27.615Z,100098.75
2022-09-26T04:36:54.473Z,100093.31
2022-09-26T04:39:21.062Z,100093.22
2022-09-26T04:41:47.698Z,100088.59
2022-09-26T04:44:15.260Z,100080.59
2022-09-26T04:46:41.841Z,100075.66
2022-09-26T04:49:09.353Z,100069.88
2022-09-26T04:51:37.204Z,100067.19
2022-09-26T04:54:03.874Z,100060.19
2022-09-26T04:56:31.091Z,100058.72
2022-09-26T04:58:59.212Z,100057.63
2022-09-26T05:01:26.459Z,100051.13
2022-09-26T05:03:55.226Z,100055.34
2022-09-26T05:06:21.881Z,100046.88
2022-09-26T05:08:48.597Z,100043.50
2022-09-26T05:11:17.303Z,100036.25
2022-09-26T05:13:45.349Z,100032.00
2022-09-26T05:16:14.527Z,100022.22
2022-09-26T05:18:59.343Z,100018.09
2022-09-26T05:21:26.065Z,100019.91
2022-09-26T05:24:11.249Z,100017.03
2022-09-26T05:26:42.159Z,100014.97
2022-09-26T05:29:09.531Z,100006.03
2022-09-26T05:31:37.953Z,100004.81
2022-09-26T05:34:08.747Z,100001.31
2022-09-26T05:36:35.359Z,100002.53
2022-09-26T05:39:02.381Z,100001.69
2022-09-26T05:41:31.223Z,99993.69
2022-09-26T05:43:57.836Z,99994.19
2022-09-26T05:46:25.311Z,99993.72
2022-09-26T05:48:51.878Z,99994.56
2022-09-26T05:51:21.226Z,99990.09
2022-09-26T05:53:49.527Z,99981.75
2022-09-26T05:56:21.204Z,99982.59
2022-09-26T05:58:48.158Z,99993.97
2022-09-26T06:01:20.924Z,99985.63
2022-09-26T06:03:47.770Z,99985.88
2022-09-26T06:06:17.486Z,99972.59
2022-09-26T06:08:44.769Z,99964.81
2022-09-26T06:11:13.937Z,99965.19
2022-09-26T06:13:44.154Z,99962.53
2022-09-26T06:16:13.005Z,99962.66
2022-09-26T06:18:39.948Z,99951.91
2022-09-26T06:21:09.543Z,99944.88
2022-09-26T06:23:36.614Z,99946.69
2022-09-26T06:26:05.210Z,99948.97
2022-09-26T06:28:31.788Z,99939.31
2022-09-26T06:30:58.362Z,99938.47
2022-09-26T06:33:27.634Z,99934.34
2022-09-26T06:36:04.832Z,99929.50
2022-09-26T06:38:31.676Z,99920.84
2022-09-26T06:40:58.433Z,99916.09
2022-09-26T06:43:25.189Z,99904.13
2022-09-26T06:45:51.984Z,99907.63
2022-09-26T06:48:24.256Z,99903.75
2022-09-26T06:50:56.078Z,99903.53
2022-09-26T06:53:23.306Z,99898.44
2022-09-26T06:55:49.900Z,99901.34
2022-09-26T06:58:16.817Z,99890.94
2022-09-26T07:00:43.983Z,99895.19
2022-09-26T07:03:12.084Z,99899.66
2022-09-26T07:05:39.861Z,99887.81
2022-09-26T07:08:07.085Z,99891.19
2022-09-26T07:10:35.281Z,99881.03
2022-09-26T07:13:04.774Z,99887.94
2022-09-26T07:15:33.532Z,99873.31
2022-09-26T07:18:02.796Z,99878.75
2022-09-26T07:20:34.229Z,99872.47
2022-09-26T07:23:02.641Z,99868.72
2022-09-26T07:25:31.317Z,99861.84
2022-09-26T07:27:58.296Z,99852.41
2022-09-26T07:30:30.990Z,99846.50
2022-09-26T07:33:03.273Z,99841.16
2022-09-26T07:35:34.531Z,99841.53
2022-09-26T07:38:01.178Z,99841.78
2022-09-26T07:40:28.752Z,99845.50
2022-09-26T07:43:19.751Z,99849.75
2022-09-26T07:46:06.437Z,99847.56
2022-09-26T07:49:11.554Z,99842.50
2022-09-26T07:51:39.226Z,99841.88
2022-09-26T07:54:06.525Z,99839.00
2022-09-26T07:56:34.544Z,99839.84
2022-09-26T07:59:03.870Z,99836.81
2022-09-26T08:01:30.578Z,99832.47
2022-09-26T08:03:58.354Z,99838.25
2022-09-26T08:06:28.172Z,99834.28
2022-09-26T08:08:58.347Z,99828.50
2022-09-26T08:11:25.128Z,99823.53
2022-09-26T08:13:51.759Z,99815.31
2022-09-26T08:16:23.218Z,99815.41
2022-09-26T08:18:50.841Z,99812.91
2022-09-26T08:21:18.061Z,99812.41
2022-09-26T08:23:45.063Z,99815.19
2022-09-26T08:26:11.666Z,99813.13
2022-09-26T08:28:38.796Z,99824.03
2022-09-26T08:31:06.709Z,99813.25
2022-09-26T08:33:35.365Z,99807.81
2022-09-26T08:36:07.357Z,99794.91
2022-09-26T08:38:34.293Z,99801.06
2022-09-26T08:41:22.667Z,99789.47
2022-09-26T08:44:11.349Z,99786.19
2022-09-26T08:46:56.586Z,99785.97
2022-09-26T08:49:42.869Z,99796.72
2022-09-26T08:52:52.111Z,99789.59
2022-09-26T08:55:25.836Z,99796.47
2022-09-26T08:57:56.814Z,99791.63
2022-09-26T09:00:25.485Z,99787.53
2022-09-26T09:03:14.963Z,99790.19
2022-09-26T09:05:49.407Z,99794.91
2022-09-26T09:08:22.190Z,99786.78
2022-09-26T09:11:16.371Z,99778.34
2022-09-26T09:13:49.153Z,99777.97
2022-09-26T09:16:37.285Z,99774.34
2022-09-26T09:19:14.916Z,99770.84
2022-09-26T09:22:05.076Z,99763.63
2022-09-26T09:24:49.873Z,99761.91
2022-09-26T09:28:05.550Z,99767.38
2022-09-26T09:31:07.145Z,99760.84
2022-09-26T09:33:43.972Z,99762.28
2022-09-26T09:36:14.113Z,99748.88
2022-09-26T09:38:44.184Z,99742.25
2022-09-26T09:41:13.615Z,99733.88
2022-09-26T09:43:47.696Z,99737.50
2022-09-26T09:46:25.396Z,99734.00
2022-09-26T09:48:56.649Z,99730.88
2022-09-26T09:51:41.441Z,99729.66
2022-09-26T09:54:07.980Z,99716.38
2022-09-26T09:56:47.478Z,99702.31
2022-09-26T09:59:39.228Z,99693.97
2022-09-26T10:02:14.377Z,99685.16
2022-09-26T10:04:49.179Z,99682.63
2022-09-26T10:07:16.343Z,99683.47
2022-09-26T10:09:44.086Z,99678.75
2022-09-26T10:12:17.061Z,99671.63
2022-09-26T10:15:20.321Z,99663.25
2022-09-26T10:18:23.003Z,99672.34
2022-09-26T10:20:53.920Z,99667.59
2022-09-26T10:23:39.702Z,99653.81
2022-09-26T10:26:07.948Z,99651.75
2022-09-26T10:28:43.304Z,99646.72
2022-09-26T10:31:11.981Z,99649.28
2022-09-26T10:33:44.362Z,99649.59
2022-09-26T10:36:19.974Z,99636.66
2022-09-26T10:39:16.345Z,99633.00
2022-09-26T10:41:45.214Z,99625.59
2022-09-26T10:44:28.387Z,99625.25
2022-09-26T10:46:58.167Z,99623.72
2022-09-26T10:49:31.607Z,99613.56
2022-09-26T10:52:08.398Z,99599.47
2022-09-26T10:54:41.857Z,99603.50
2022-09-26T10:57:18.887Z,99599.28
2022-09-26T10:59:54.290Z,99595.84
2022-09-26T11:02:23.185Z,99590.41
2022-09-26T11:05:13.421Z,99585.69
2022-09-26T11:07:42.600Z,99579.97
2022-09-26T11:10:12.674Z,99578.44
2022-09-26T11:12:56.333Z,99579.28
2022-09-26T11:15:23.579Z,99575.22
2022-09-26T11:17:55.634Z,99567.66
2022-09-26T11:20:44.391Z,99566.25
2022-09-26T11:23:23.180Z,99571.16
2022-09-26T11:26:01.426Z,99563.59
2022-09-26T11:28:36.561Z,99556.88
2022-09-26T11:31:10.272Z,99557.16
2022-09-26T11:33:45.872Z,99542.84
2022-09-26T11:36:45.408Z,99532.75
2022-09-26T11:39:19.453Z,99532.06
2022-09-26T11:42:04.139Z,99526.00
2022-09-26T11:44:43.409Z,99525.47
2022-09-26T11:47:22.089Z,99508.47
2022-09-26T11:49:51.769Z,99512.84
2022-09-26T11:52:49.678Z,99512.72
2022-09-26T11:55:24.322Z,99510.44
2022-09-26T11:58:04.705Z,99508.34
2022-09-26T12:00:42.928Z,99513.38
2022-09-26T12:03:46.899Z,99515.34
2022-09-26T12:06:25.848Z,99517.59
2022-09-26T12:09:16.676Z,99506.78
2022-09-26T12:11:59.375Z,99500.88
2022-09-26T12:14:41.188Z,99500.88
2022-09-26T12:17:36.383Z,99501.00
2022-09-26T12:20:24.258Z,99502.00
2022-09-26T12:23:16.628Z,99495.97
2022-09-26T12:26:01.943Z,99495.56
2022-09-26T12:28:47.089Z,99488.69
2022-09-26T12:31:20.933Z,99489.94
2022-09-26T12:34:00.553Z,99481.09
2022-09-26T12:36:48.078Z,99476.63
2022-09-26T12:39:26.046Z,99475.09
2022-09-26T12:42:11.225Z,99473.41
2022-09-26T12:44:52.404Z,99466.53
2022-09-26T12:47:52.442Z,99472.41
2022-09-26T12:50:24.965Z,99469.75
2022-09-26T12:53:15.788Z,99466.13
2022-09-26T12:55:51.429Z,99466.38
2022-09-26T12:58:24.964Z,99458.53
2022-09-26T13:01:16.008Z,99463.03
2022-09-26T13:03:46.987Z,99459.78
2022-09-26T13:06:29.542Z,99464.81
2022-09-26T13:09:12.671Z,99456.69
2022-09-26T13:11:42.639Z,99448.56
2022-09-26T13:14:18.549Z,99448.28
2022-09-26T13:16:54.839Z,99440.69
2022-09-26T13:19:23.001Z,99443.34
2022-09-26T13:22:32.894Z,99433.66
2022-09-26T13:25:20.918Z,99435.59
2022-09-26T13:27:56.209Z,99435.88
2022-09-26T13:30:29.383Z,99436.03
2022-09-26T13:33:15.874Z,99430.84
2022-09-26T13:35:51.407Z,99431.25
2022-09-26T13:38:29.730Z,99418.78
2022-09-26T13:42:01.958Z,99429.13
2022-09-26T13:44:53.840Z,99424.94
2022-09-26T13:47:38.341Z,99419.03
2022-09-26T13:55:23.198Z,99417.72
2022-09-26T13:58:06.962Z,99418.28
2022-09-26T14:00:40.939Z,99409.72
2022-09-26T14:03:10.508Z,99412.97
2022-09-26T14:05:43.748Z,99415.06
2022-09-26T14:08:46.017Z,99410.84
2022-09-26T14:11:24.687Z,99408.44
2022-09-26T14:14:19.452Z,99402.00
2022-09-26T14:16:54.178Z,99397.91
2022-09-26T14:19:36.331Z,99400.25
2022-09-26T14:22:20.596Z,99397.88
2022-09-26T14:24:48.611Z,99383.19
2022-09-26T14:27:42.119Z,99384.75
2022-09-26T14:30:30.346Z,99375.47
2022-09-26T14:33:06.580Z,99376.19
2022-09-26T14:35:38.667Z,99369.34
2022-09-26T14:38:16.891Z,99365.97
2022-09-26T14:40:58.236Z,99366.25
2022-09-26T14:43:28.414Z,99361.78
2022-09-26T14:46:03.339Z,99352.25
2022-09-26T14:48:38.490Z,99349.59
2022-09-26T14:51:11.191Z,99339.50
2022-09-26T14:53:48.491Z,99346.09
2022-09-26T14:56:45.080Z,99341.75
2022-09-26T14:59:50.295Z,99332.09
2022-09-26T15:02:28.731Z,99334.59
2022-09-26T15:05:12.134Z,99325.09
2022-09-26T15:07:47.253Z,99319.06
2022-09-26T15:10:14.100Z,99321.47
2022-09-26T15:12:48.673Z,99325.66
2022-09-26T15:15:29.298Z,99314.47
2022-09-26T15:18:03.586Z,99312.91
2022-09-26T15:20:35.806Z,99312.47
2022-09-26T15:23:02.824Z,99304.91
2022-09-26T15:25:33.226Z,99304.91
2022-09-26T15:28:01.702Z,99302.38
2022-09-26T15:30:39.426Z,99299.91
2022-09-26T15:33:07.462Z,99298.63
2022-09-26T15:35:34.196Z,99292.22
2022-09-26T15:38:03.419Z,99292.88
2022-09-26T15:40:31.796Z,99293.72
2022-09-26T15:43:20.612Z,99289.50
2022-09-26T15:45:47.645Z,99286.13
2022-09-26T15:48:20.467Z,99284.72
2022-09-26T15:50:53.289Z,99285.44
2022-09-26T15:53:37.404Z,99277.47
2022-09-26T15:56:13.390Z,99274.78
2022-09-26T15:58:40.141Z,99276.16
2022-09-26T16:01:08.315Z,99260.91
2022-09-26T16:03:47.188Z,99265.94
2022-09-26T16:06:24.518Z,99257.72
2022-09-26T16:09:25.756Z,99255.59
2022-09-26T16:11:57.704Z,99253.78
2022-09-26T16:14:30.857Z,99254.34
2022-09-26T16:17:24.116Z,99251.31
2022-09-26T16:19:59.287Z,99245.44
2022-09-26T16:22:40.276Z,99246.00
2022-09-26T16:25:16.009Z,99249.22
2022-09-26T16:27:43.124Z,99248.09
2022-09-26T16:30:30.310Z,99244.06
2022-09-26T16:33:02.906Z,99240.69
2022-09-26T16:35:30.635Z,99234.94
2022-09-26T16:38:23.069Z,99232.53
2022-09-26T16:40:52.200Z,99230.84
2022-09-26T16:43:27.051Z,99214.91
2022-09-26T16:46:09.502Z,99224.97
2022-09-26T16:48:51.747Z,99221.22
2022-09-26T16:51:18.522Z,99212.81
2022-09-26T16:53:59.379Z,99214.22
2022-09-26T16:56:27.539Z,99209.44
2022-09-26T16:58:57.220Z,99200.78
2022-09-26T17:01:42.981Z,99203.56
2022-09-26T17:04:17.989Z,99195.31
2022-09-26T17:06:48.030Z,99195.19
2022-09-26T17:09:30.748Z,99194.72
2022-09-26T17:12:04.339Z,99188.31
2022-09-26T17:14:40.449Z,99189.81
2022-09-26T17:17:13.716Z,99186.19
2022-09-26T17:19:41.305Z,99188.44
2022-09-26T17:22:16.168Z,99182.28
2022-09-26T17:24:43.491Z,99174.19
2022-09-26T17:27:15.668Z,99175.56
2022-09-26T17:29:48.719Z,99178.78
2022-09-26T17:32:29.247Z,99174.31
2022-09-26T17:34:59.658Z,99171.00
2022-09-26T17:37:27.833Z,99171.81
2022-09-26T17:39:55.253Z,99162.44
2022-09-26T17:42:22.807Z,99165.22
2022-09-26T17:44:50.198Z,99161.31
2022-09-26T17:47:17.729Z,99159.91
2022-09-26T17:49:48.332Z,99164.81
2022-09-26T17:52:29.004Z,99156.97
2022-09-26T17:55:02.377Z,99154.44
2022-09-26T17:57:34.560Z,99154.59
2022-09-26T18:00:06.801Z,99165.91
2022-09-26T18:02:44.950Z,99158.91
2022-09-26T18:05:22.036Z,99159.88
2022-09-26T18:07:52.563Z,99151.47
2022-09-26T18:10:22.274Z,99152.59
2022-09-26T18:12:56.739Z,99148.69
2022-09-26T18:15:25.076Z,99153.41
2022-09-26T18:17:53.322Z,99143.34
2022-09-26T18:20:24.689Z,99140.00
2022-09-26T18:22:52.189Z,99148.66
2022-09-26T18:25:21.986Z,99144.06
2022-09-26T18:27:54.061Z,99138.88
2022-09-26T18:30:22.040Z,99151.19
2022-09-26T18:32:52.991Z,99136.63
2022-09-26T18:35:27.824Z,99133.69
2022-09-26T18:37:55.959Z,99133.13
2022-09-26T18:40:28.430Z,99137.19
2022-09-26T18:42:57.311Z,99135.66
2022-09-26T18:45:27.821Z,99144.91
2022-09-26T18:47:55.067Z,99146.97
2022-09-26T18:50:26.990Z,99140.00
2022-09-26T18:52:53.824Z,99141.53
2022-09-26T18:55:41.563Z,99145.88
2022-09-26T18:58:25.872Z,99147.56
2022-09-26T19:00:56.880Z,99142.97
2022-09-26T19:03:25.792Z,99145.75
2022-09-26T19:05:57.686Z,99137.34
2022-09-26T19:08:37.993Z,99141.81
2022-09-26T19:11:16.443Z,99131.50
2022-09-26T19:13:44.847Z,99138.63
2022-09-26T19:16:11.696Z,99136.22
2022-09-26T19:18:38.790Z,99136.09
2022-09-26T19:21:11.096Z,99129.09
2022-09-26T19:23:37.791Z,99141.09
2022-09-26T19:26:05.171Z,99134.09
2022-09-26T19:28:34.189Z,99126.00
2022-09-26T19:31:01.362Z,99124.19
2022-09-26T19:33:28.226Z,99129.22
2022-09-26T19:35:54.928Z,99123.78
2022-09-26T19:38:26.142Z,99121.25
2022-09-26T19:40:54.023Z,99117.50
2022-09-26T19:43:21.814Z,99112.19
2022-09-26T19:45:52.845Z,99112.03
2022-09-26T19:48:21.546Z,99108.41
2022-09-26T19:50:49.087Z,99118.34
2022-09-26T19:53:17.863Z,99125.47
2022-09-26T19:55:46.082Z,99120.16
2022-09-26T19:58:15.603Z,99116.66
2022-09-26T20:00:43.674Z,99108.13
2022-09-26T20:03:21.248Z,99112.31
2022-09-26T20:05:49.542Z,99115.53
2022-09-26T20:08:20.596Z,99114.53
2022-09-26T20:10:48.134Z,99109.22
2022-09-26T20:13:15.367Z,99112.31
2022-09-26T20:15:42.346Z,99109.53
2022-09-26T20:18:14.242Z,99106.88
2022-09-26T20:20:41.190Z,99108.97
2022-09-26T20:23:18.041Z,99107.53
2022-09-26T20:25:46.254Z,99104.75
2022-09-26T20:28:14.643Z,99102.66
2022-09-26T20:30:58.604Z,99098.34
2022-09-26T20:33:26.667Z,99096.22
2022-09-26T20:36:02.922Z,99095.81
2022-09-26T20:38:33.761Z,99088.69
2022-09-26T20:41:12.699Z,99094.84
2022-09-26T20:43:40.087Z,99093.84
2022-09-26T20:46:08.932Z,99091.19
2022-09-26T20:48:36.146Z,99092.31
2022-09-26T20:51:04.594Z,99083.75
2022-09-26T20:53:31.293Z,99082.78
2022-09-26T20:55:58.013Z,99088.81
2022-09-26T20:58:24.863Z,99090.75
2022-09-26T21:00:53.323Z,99086.16
2022-09-26T21:03:21.999Z,99088.81
2022-09-26T21:05:48.818Z,99078.44
2022-09-26T21:08:25.735Z,99081.94
2022-09-26T21:10:52.586Z,99075.94
2022-09-26T21:13:19.244Z,99072.16
2022-09-26T21:15:46.190Z,99085.19
2022-09-26T21:18:28.460Z,99080.97
2022-09-26T21:20:57.432Z,99069.50
2022-09-26T21:23:24.273Z,99086.28
2022-09-26T21:25:50.921Z,99081.81
2022-09-26T21:28:27.666Z,99079.59
2022-09-26T21:31:05.449Z,99076.91
2022-09-26T21:33:32.121Z,99075.81
2022-09-26T21:35:58.777Z,99074.13
2022-09-26T21:38:26.029Z,99070.75
2022-09-26T21:40:57.931Z,99068.69
2022-09-26T21:43:28.150Z,99067.00
2022-09-26T21:45:54.872Z,99074.00
2022-09-26T21:48:21.608Z,99068.13
2022-09-26T21:50:57.424Z,99067.72
2022-09-26T21:53:36.425Z,99069.38
2022-09-26T21:56:07.836Z,99066.44
2022-09-26T21:58:36.757Z,99066.31
2022-09-26T22:01:03.403Z,99066.00
2022-09-26T22:03:30.032Z,99066.28
2022-09-26T22:05:56.642Z,99066.59
2022-09-26T22:08:23.612Z,99066.16
2022-09-26T22:10:53.197Z,99063.94
2022-09-26T22:13:19.944Z,99066.16
2022-09-26T22:15:46.552Z,99063.59
2022-09-26T22:18:13.178Z,99065.28
2022-09-26T22:20:40.267Z,99063.06
2022-09-26T22:23:06.860Z,99069.34
2022-09-26T22:25:34.776Z,99065.00
2022-09-26T22:28:01.756Z,99060.41
2022-09-26T22:30:28.482Z,99064.16
2022-09-26T22:32:55.517Z,99062.88
2022-09-26T22:35:22.289Z,99073.97
2022-09-26T22:37:48.979Z,99069.63
2022-09-26T22:40:15.824Z,99067.78
2022-09-26T22:42:42.965Z,99071.91
2022-09-26T22:45:10.351Z,99073.94
2022-09-26T22:47:37.133Z,99070.84
2022-09-26T22:50:06.803Z,99079.25
2022-09-26T22:52:33.583Z,99091.78
2022-09-26T22:55:00.526Z,99077.50
2022-09-26T22:57:27.317Z,99072.75
2022-09-26T22:59:53.980Z,99074.69
2022-09-26T23:02:21.117Z,99078.03
2022-09-26T23:04:47.896Z,99076.66
2022-09-26T23:07:17.489Z,99087.63
2022-09-26T23:09:44.664Z,99086.88
2022-09-26T23:12:11.454Z,99081.25
2022-09-26T23:14:38.178Z,99094.97
2022-09-26T23:17:05.021Z,99082.44
2022-09-26T23:19:32.552Z,99085.47
2022-09-26T23:21:59.260Z,99084.50
2022-09-26T23:24:25.877Z,99079.00
2022-09-26T23:26:52.526Z,99085.66
2022-09-26T23:29:19.234Z,99079.25
2022-09-26T23:31:45.940Z,99083.72
2022-09-26T23:34:12.539Z,99094.28
2022-09-26T23:36:39.153Z,99083.81
2022-09-26T23:39:05.957Z,99087.31
2022-09-26T23:41:32.557Z,99089.69
2022-09-26T23:43:59.322Z,99096.41
2022-09-26T23:46:25.999Z,99098.47
2022-09-26T23:48:52.761Z,99092.78
2022-09-26T23:51:19.643Z,99098.09
2022-09-26T23:53:48.031Z,99103.53
2022-09-26T23:56:14.780Z,99107.72
2022-09-26T23:58:41.516Z,99101.75
